createdAt,value
2023-03-13T00:00:49.565Z,8.87
2023-03-13T00:03:56.244Z,9.11
2023-03-13T00:07:24.560Z,9.20
2023-03-13T00:10:28.916Z,9.28
2023-03-13T00:13:31.607Z,9.41
2023-03-13T00:16:37.534Z,9.54
2023-03-13T00:19:41.869Z,9.66
2023-03-13T00:22:50.704Z,9.83
2023-03-13T00:25:59.519Z,9.98
2023-03-13T00:29:02.202Z,10.12
2023-03-13T00:32:06.558Z,10.17
2023-03-13T00:35:12.850Z,10.26
2023-03-13T00:38:15.486Z,10.29
2023-03-13T00:41:21.264Z,10.31
2023-03-13T00:44:31.155Z,10.33
2023-03-13T00:47:35.848Z,10.36
2023-03-13T00:50:38.491Z,10.41
2023-03-13T00:53:41.565Z,10.43
2023-03-13T00:56:46.023Z,10.37
2023-03-13T00:59:51.519Z,10.44
2023-03-13T01:02:54.538Z,10.43
2023-03-13T01:06:06.238Z,10.42
2023-03-13T01:09:12.609Z,10.43
2023-03-13T01:12:16.594Z,10.40
2023-03-13T01:15:19.998Z,10.36
2023-03-13T01:18:25.680Z,10.34
2023-03-13T01:21:30.669Z,10.35
2023-03-13T01:24:35.643Z,10.32
2023-03-13T01:27:39.644Z,10.31
2023-03-13T01:30:42.347Z,10.28
2023-03-13T01:33:46.415Z,10.25
2023-03-13T01:36:55.202Z,10.21
2023-03-13T01:39:58.834Z,10.21
2023-03-13T01:43:27.947Z,10.17
2023-03-13T01:46:31.429Z,10.23
2023-03-13T01:49:36.067Z,10.26
2023-03-13T01:52:39.029Z,10.28
2023-03-13T01:55:42.010Z,10.33
2023-03-13T01:58:47.029Z,10.41
2023-03-13T02:01:54.522Z,10.44
2023-03-13T02:05:00.828Z,10.52
2023-03-13T02:08:08.712Z,10.57
2023-03-13T02:11:24.220Z,10.61
2023-03-13T02:14:31.197Z,10.65
2023-03-13T02:17:36.242Z,10.72
2023-03-13T02:20:40.763Z,10.76
2023-03-13T02:23:55.841Z,10.84
2023-03-13T02:27:03.934Z,10.84
2023-03-13T02:30:09.756Z,10.87
2023-03-13T02:33:13.383Z,10.89
2023-03-13T02:36:18.051Z,10.95
2023-03-13T02:39:24.604Z,10.98
2023-03-13T02:42:31.389Z,11.02
2023-03-13T02:45:34.112Z,11.06
2023-03-13T02:48:39.823Z,11.06
2023-03-13T02:51:47.304Z,11.11
2023-03-13T02:54:56.123Z,11.17
2023-03-13T02:58:00.157Z,11.16
2023-03-13T03:01:10.885Z,11.15
2023-03-13T03:04:15.344Z,11.14
2023-03-13T03:07:20.174Z,11.13
2023-03-13T03:10:22.948Z,11.14
2023-03-13T03:13:29.986Z,11.16
2023-03-13T03:16:38.956Z,11.19
2023-03-13T03:19:46.282Z,11.16
2023-03-13T03:22:52.049Z,11.16
2023-03-13T03:25:54.750Z,11.19
2023-03-13T03:29:01.590Z,11.16
2023-03-13T03:32:04.846Z,11.15
2023-03-13T03:35:10.841Z,11.12
2023-03-13T03:38:13.602Z,11.11
2023-03-13T03:41:16.579Z,11.08
2023-03-13T03:44:25.044Z,11.08
2023-03-13T03:47:27.848Z,11.09
2023-03-13T03:50:30.589Z,11.09
2023-03-13T03:53:33.507Z,11.09
2023-03-13T03:56:36.221Z,11.11
2023-03-13T03:59:42.746Z,11.15
2023-03-13T04:02:45.907Z,11.13
2023-03-13T04:05:51.686Z,11.10
2023-03-13T04:08:55.492Z,11.10
2023-03-13T04:11:58.206Z,11.06
2023-03-13T04:15:02.313Z,11.03
2023-03-13T04:18:10.972Z,11.01
2023-03-13T04:21:21.501Z,10.98
2023-03-13T04:24:24.198Z,10.99
2023-03-13T04:27:27.005Z,10.92
2023-03-13T04:30:31.040Z,10.88
2023-03-13T04:33:34.339Z,10.84
2023-03-13T04:36:36.995Z,10.83
2023-03-13T04:39:39.709Z,10.81
2023-03-13T04:42:42.584Z,10.73
2023-03-13T04:45:54.602Z,10.81
2023-03-13T04:48:57.344Z,10.77
2023-03-13T04:52:00.097Z,10.76
2023-03-13T04:55:10.406Z,10.74
2023-03-13T04:58:13.113Z,10.77
2023-03-13T05:01:21.627Z,10.75
2023-03-13T05:04:24.355Z,10.77
2023-03-13T05:07:29.636Z,10.76
2023-03-13T05:10:33.030Z,10.80
2023-03-13T05:13:35.743Z,10.85
2023-03-13T05:16:39.973Z,10.86
2023-03-13T05:19:45.496Z,10.88
2023-03-13T05:22:48.196Z,10.90
2023-03-13T05:25:50.880Z,10.93
2023-03-13T05:28:56.116Z,10.95
2023-03-13T05:32:02.916Z,11.03
2023-03-13T05:35:06.153Z,11.03
2023-03-13T05:38:08.927Z,11.04
2023-03-13T05:41:11.656Z,11.09
2023-03-13T05:44:14.340Z,11.15
2023-03-13T05:47:18.711Z,11.15
2023-03-13T05:50:21.696Z,11.19
2023-03-13T05:53:24.470Z,11.24
2023-03-13T05:56:29.743Z,11.25
2023-03-13T05:59:32.489Z,11.27
2023-03-13T06:02:39.641Z,11.28
2023-03-13T06:05:48.210Z,11.33
2023-03-13T06:08:53.108Z,11.38
2023-03-13T06:11:56.649Z,11.40
2023-03-13T06:14:59.343Z,11.46
2023-03-13T06:18:03.454Z,11.48
2023-03-13T06:21:08.568Z,11.53
2023-03-13T06:24:11.265Z,11.61
2023-03-13T06:27:13.965Z,11.68
2023-03-13T06:30:16.905Z,11.78
2023-03-13T06:33:20.965Z,11.85
2023-03-13T06:36:26.569Z,11.90
2023-03-13T06:39:29.449Z,11.92
2023-03-13T06:42:32.121Z,11.94
2023-03-13T06:45:36.419Z,11.98
2023-03-13T06:48:40.406Z,12.02
2023-03-13T06:51:46.201Z,12.03
2023-03-13T06:54:49.054Z,12.08
2023-03-13T06:57:52.521Z,12.14
2023-03-13T07:00:55.279Z,12.18
2023-03-13T07:03:59.353Z,12.24
2023-03-13T07:07:14.956Z,12.32
2023-03-13T07:10:23.581Z,12.38
2023-03-13T07:13:27.619Z,12.47
2023-03-13T07:16:30.367Z,12.53
2023-03-13T07:19:37.043Z,12.58
2023-03-13T07:22:39.962Z,12.59
2023-03-13T07:25:47.622Z,12.63
2023-03-13T07:28:50.351Z,12.66
2023-03-13T07:31:53.145Z,12.74
2023-03-13T07:34:57.209Z,12.82
2023-03-13T07:38:03.279Z,12.85
2023-03-13T07:41:09.358Z,12.90
2023-03-13T07:44:12.019Z,12.92
2023-03-13T07:47:14.740Z,12.98
2023-03-13T07:50:21.951Z,13.02
2023-03-13T07:53:25.575Z,12.99
2023-03-13T07:56:28.319Z,13.14
2023-03-13T07:59:31.116Z,13.19
2023-03-13T08:02:34.903Z,13.24
2023-03-13T08:05:42.056Z,13.32
2023-03-13T08:08:44.962Z,13.36
2023-03-13T08:11:48.919Z,13.40
2023-03-13T08:14:52.185Z,13.28
2023-03-13T08:17:54.894Z,13.46
2023-03-13T08:21:02.284Z,13.47
2023-03-13T08:24:10.677Z,13.46
2023-03-13T08:27:13.391Z,13.48
2023-03-13T08:30:16.560Z,13.48
2023-03-13T08:33:19.251Z,13.51
2023-03-13T08:36:25.666Z,13.55
2023-03-13T08:39:28.511Z,13.56
2023-03-13T08:42:31.209Z,13.59
2023-03-13T08:45:33.897Z,13.66
2023-03-13T08:48:36.821Z,13.72
2023-03-13T08:51:41.326Z,13.73
2023-03-13T08:54:50.161Z,13.69
2023-03-13T08:57:52.828Z,13.58
2023-03-13T09:00:56.145Z,13.70
2023-03-13T09:04:03.667Z,13.70
2023-03-13T09:07:23.085Z,13.65
2023-03-13T09:10:25.801Z,13.73
2023-03-13T09:13:30.283Z,13.70
2023-03-13T09:16:34.973Z,13.78
2023-03-13T09:19:39.058Z,13.81
2023-03-13T09:22:45.947Z,13.83
2023-03-13T09:25:49.212Z,13.84
2023-03-13T09:28:59.824Z,13.80
2023-03-13T09:32:03.880Z,13.87
2023-03-13T09:35:07.840Z,13.90
2023-03-13T09:38:11.986Z,13.95
2023-03-13T09:41:28.110Z,13.91
2023-03-13T09:44:37.542Z,14.02
2023-03-13T09:47:46.218Z,14.04
2023-03-13T09:51:00.048Z,14.08
2023-03-13T09:54:10.366Z,14.07
2023-03-13T09:57:17.779Z,14.09
2023-03-13T10:00:25.436Z,14.13
2023-03-13T10:03:31.701Z,14.13
2023-03-13T10:06:41.849Z,14.26
2023-03-13T10:09:45.879Z,14.29
2023-03-13T10:12:52.783Z,14.32
2023-03-13T10:15:59.127Z,14.30
2023-03-13T10:19:15.324Z,14.48
2023-03-13T10:22:20.865Z,14.65
2023-03-13T10:25:33.426Z,14.80
2023-03-13T10:28:36.098Z,14.96
2023-03-13T10:31:39.338Z,15.24
2023-03-13T10:34:49.861Z,15.64
2023-03-13T10:38:03.483Z,15.99
2023-03-13T10:41:22.192Z,16.57
2023-03-13T10:44:31.764Z,16.74
2023-03-13T10:47:35.825Z,16.75
2023-03-13T10:50:42.286Z,16.64
2023-03-13T10:53:45.058Z,16.55
2023-03-13T10:57:28.337Z,16.47
2023-03-13T11:00:36.215Z,16.49
2023-03-13T11:03:39.001Z,16.58
2023-03-13T11:06:52.736Z,16.93
2023-03-13T11:10:18.689Z,17.35
2023-03-13T11:13:37.968Z,17.93
2023-03-13T11:16:49.403Z,18.22
2023-03-13T11:20:00.857Z,18.39
2023-03-13T11:23:18.006Z,18.55
2023-03-13T11:26:28.877Z,18.74
2023-03-13T11:29:41.107Z,18.82
2023-03-13T11:32:46.734Z,18.95
2023-03-13T11:35:54.772Z,19.07
2023-03-13T11:39:04.341Z,19.23
2023-03-13T11:42:31.959Z,19.49
2023-03-13T11:45:56.614Z,19.83
2023-03-13T11:49:31.447Z,20.11
2023-03-13T11:52:44.122Z,20.17
2023-03-13T11:56:00.919Z,20.32
2023-03-13T11:59:26.296Z,20.51
2023-03-13T12:02:37.822Z,20.75
2023-03-13T12:05:46.822Z,20.65
2023-03-13T12:08:56.128Z,20.62
2023-03-13T12:12:04.596Z,20.68
2023-03-13T12:15:19.259Z,20.65
2023-03-13T12:18:29.042Z,20.55
2023-03-13T12:21:38.153Z,20.44
2023-03-13T12:24:47.160Z,20.54
2023-03-13T12:27:57.979Z,20.51
2023-03-13T12:31:08.240Z,20.37
2023-03-13T12:34:18.792Z,20.41
2023-03-13T12:37:31.955Z,20.59
2023-03-13T12:40:39.221Z,20.67
2023-03-13T12:44:07.141Z,20.73
2023-03-13T12:47:18.871Z,20.73
2023-03-13T12:50:34.156Z,20.78
2023-03-13T12:54:10.241Z,20.63
2023-03-13T12:57:59.477Z,20.34
2023-03-13T13:01:05.442Z,20.31
2023-03-13T13:04:12.659Z,20.22
2023-03-13T13:07:26.785Z,20.16
2023-03-13T13:10:30.226Z,20.01
2023-03-13T13:13:32.959Z,19.89
2023-03-13T13:16:35.792Z,19.90
2023-03-13T13:19:53.673Z,19.95
2023-03-13T13:23:17.065Z,20.02
2023-03-13T13:26:50.811Z,20.08
2023-03-13T13:29:56.388Z,20.21
2023-03-13T13:33:41.762Z,20.36
2023-03-13T13:36:44.939Z,20.50
2023-03-13T13:39:52.876Z,20.47
2023-03-13T13:42:57.272Z,20.53
2023-03-13T13:46:06.119Z,20.53
2023-03-13T13:49:15.797Z,20.36
2023-03-13T13:52:35.200Z,20.28
2023-03-13T13:55:45.882Z,20.06
2023-03-13T13:58:49.111Z,20.38
2023-03-13T14:02:14.951Z,20.45
2023-03-13T14:05:19.874Z,20.34
2023-03-13T14:08:26.911Z,20.32
2023-03-13T14:11:37.727Z,20.32
2023-03-13T14:14:40.510Z,20.25
2023-03-13T14:17:45.749Z,20.32
2023-03-13T14:20:57.412Z,20.38
2023-03-13T14:24:00.219Z,20.43
2023-03-13T14:27:15.998Z,20.43
2023-03-13T14:30:20.740Z,20.37
2023-03-13T14:33:24.420Z,20.33
2023-03-13T14:36:30.436Z,20.33
2023-03-13T14:39:46.042Z,20.33
2023-03-13T14:42:52.080Z,20.26
2023-03-13T14:45:55.548Z,20.29
2023-03-13T14:48:58.791Z,20.30
2023-03-13T14:52:04.037Z,20.27
2023-03-13T14:55:26.312Z,20.27
2023-03-13T14:58:31.752Z,20.32
2023-03-13T15:01:34.682Z,20.53
2023-03-13T15:04:56.102Z,20.53
2023-03-13T15:07:59.218Z,20.65
2023-03-13T15:11:02.258Z,20.84
2023-03-13T15:14:38.439Z,20.98
2023-03-13T15:17:44.730Z,21.02
2023-03-13T15:20:51.333Z,21.11
2023-03-13T15:24:02.141Z,21.08
2023-03-13T15:27:11.493Z,20.90
2023-03-13T15:30:18.648Z,20.75
2023-03-13T15:33:23.991Z,20.53
2023-03-13T15:36:27.373Z,20.39
2023-03-13T15:39:30.068Z,20.23
2023-03-13T15:42:37.620Z,20.00
2023-03-13T15:45:43.617Z,19.80
2023-03-13T15:48:49.626Z,19.64
2023-03-13T15:51:53.631Z,19.52
2023-03-13T15:54:56.598Z,19.39
2023-03-13T15:57:59.328Z,19.32
2023-03-13T16:01:03.498Z,19.25
2023-03-13T16:04:06.650Z,19.19
2023-03-13T16:07:11.551Z,19.11
2023-03-13T16:10:18.157Z,19.02
2023-03-13T16:13:22.148Z,18.98
2023-03-13T16:16:28.632Z,18.95
2023-03-13T16:19:31.712Z,18.89
2023-03-13T16:22:34.456Z,19.02
2023-03-13T16:25:38.526Z,18.62
2023-03-13T16:28:41.250Z,17.65
2023-03-13T16:31:45.472Z,16.37
2023-03-13T16:34:48.238Z,15.17
2023-03-13T16:37:52.146Z,14.32
2023-03-13T16:40:54.871Z,13.94
2023-03-13T16:43:58.512Z,13.62
2023-03-13T16:47:06.716Z,13.56
2023-03-13T16:50:19.933Z,13.42
2023-03-13T16:53:22.716Z,13.40
2023-03-13T16:56:29.472Z,13.28
2023-03-13T16:59:32.176Z,13.34
2023-03-13T17:02:37.698Z,13.29
2023-03-13T17:05:40.553Z,13.27
2023-03-13T17:08:44.198Z,13.30
2023-03-13T17:11:47.126Z,13.36
2023-03-13T17:14:50.100Z,13.45
2023-03-13T17:17:54.905Z,13.85
2023-03-13T17:20:57.750Z,13.50
2023-03-13T17:24:02.133Z,13.40
2023-03-13T17:27:05.200Z,13.36
2023-03-13T17:30:20.032Z,13.41
2023-03-13T17:33:24.195Z,13.17
2023-03-13T17:36:29.061Z,13.18
2023-03-13T17:39:31.755Z,12.90
2023-03-13T17:42:34.480Z,12.92
2023-03-13T17:45:37.413Z,12.98
2023-03-13T17:48:41.428Z,12.98
2023-03-13T17:51:46.378Z,13.09
2023-03-13T17:54:49.198Z,13.08
2023-03-13T17:57:53.235Z,13.13
2023-03-13T18:00:55.977Z,13.07
2023-03-13T18:04:00.354Z,13.07
2023-03-13T18:07:04.172Z,12.97
2023-03-13T18:10:12.015Z,13.04
2023-03-13T18:13:14.711Z,13.09
2023-03-13T18:16:21.187Z,13.05
2023-03-13T18:19:26.949Z,13.05
2023-03-13T18:22:29.627Z,13.07
2023-03-13T18:25:32.293Z,13.04
2023-03-13T18:28:38.237Z,13.05
2023-03-13T18:31:42.607Z,13.10
2023-03-13T18:34:46.948Z,13.14
2023-03-13T18:37:50.140Z,13.16
2023-03-13T18:40:52.830Z,13.20
2023-03-13T18:43:55.949Z,13.23
2023-03-13T18:46:58.705Z,13.22
2023-03-13T18:50:07.444Z,13.23
2023-03-13T18:53:13.222Z,13.16
2023-03-13T18:56:24.085Z,13.18
2023-03-13T18:59:29.205Z,13.19
2023-03-13T19:02:31.885Z,13.19
2023-03-13T19:05:36.289Z,13.20
2023-03-13T19:08:38.956Z,13.22
2023-03-13T19:11:41.663Z,13.24
2023-03-13T19:14:44.512Z,13.08
2023-03-13T19:17:47.321Z,13.24
2023-03-13T19:20:52.011Z,13.17
2023-03-13T19:23:55.573Z,13.07
2023-03-13T19:26:59.276Z,13.02
2023-03-13T19:30:02.018Z,12.95
2023-03-13T19:33:04.870Z,13.04
2023-03-13T19:36:15.707Z,13.08
2023-03-13T19:39:20.665Z,12.96
2023-03-13T19:42:37.617Z,12.92
2023-03-13T19:45:41.749Z,13.03
2023-03-13T19:48:44.450Z,13.09
2023-03-13T19:51:48.947Z,13.08
2023-03-13T19:54:55.768Z,13.28
2023-03-13T19:57:58.512Z,13.08
2023-03-13T20:01:16.443Z,12.98
2023-03-13T20:04:19.720Z,12.83
2023-03-13T20:07:28.666Z,12.84
2023-03-13T20:10:31.660Z,12.73
2023-03-13T20:13:35.047Z,12.70
2023-03-13T20:16:38.704Z,12.71
2023-03-13T20:19:41.415Z,12.72
2023-03-13T20:22:45.466Z,12.75
2023-03-13T20:25:48.263Z,12.71
2023-03-13T20:28:55.387Z,12.71
2023-03-13T20:32:00.307Z,12.72
2023-03-13T20:35:07.765Z,12.71
2023-03-13T20:38:11.982Z,12.70
2023-03-13T20:41:16.223Z,12.68
2023-03-13T20:44:18.920Z,12.72
2023-03-13T20:47:21.602Z,12.63
2023-03-13T20:50:24.561Z,12.64
2023-03-13T20:53:28.779Z,12.65
2023-03-13T20:56:31.574Z,12.51
2023-03-13T20:59:34.319Z,12.43
2023-03-13T21:02:37.024Z,12.46
2023-03-13T21:05:40.302Z,12.47
2023-03-13T21:08:48.098Z,12.32
2023-03-13T21:11:52.803Z,12.25
2023-03-13T21:14:55.568Z,12.17
2023-03-13T21:17:58.370Z,12.15
2023-03-13T21:21:04.405Z,12.10
2023-03-13T21:24:09.853Z,12.06
2023-03-13T21:27:14.270Z,12.09
2023-03-13T21:30:19.041Z,12.02
2023-03-13T21:33:22.309Z,11.98
2023-03-13T21:36:24.997Z,11.87
2023-03-13T21:39:29.089Z,11.83
2023-03-13T21:42:31.759Z,11.80
2023-03-13T21:45:35.290Z,11.73
2023-03-13T21:48:38.858Z,11.70
2023-03-13T21:51:41.575Z,11.66
2023-03-13T21:54:45.728Z,11.62
2023-03-13T21:57:48.415Z,11.56
2023-03-13T22:00:54.530Z,11.51
2023-03-13T22:03:57.285Z,11.49
2023-03-13T22:06:59.990Z,11.46
2023-03-13T22:10:05.374Z,11.45
2023-03-13T22:13:09.384Z,11.45
2023-03-13T22:16:12.588Z,11.34
2023-03-13T22:19:17.303Z,11.36
2023-03-13T22:22:23.433Z,11.36
2023-03-13T22:25:27.524Z,11.32
2023-03-13T22:28:30.246Z,11.31
2023-03-13T22:31:33.891Z,11.30
2023-03-13T22:34:36.829Z,11.28
2023-03-13T22:37:39.818Z,11.26
2023-03-13T22:40:43.948Z,11.22
2023-03-13T22:43:46.612Z,11.22
2023-03-13T22:46:52.347Z,11.13
2023-03-13T22:49:55.050Z,11.15
2023-03-13T22:53:00.828Z,11.12
2023-03-13T22:56:05.174Z,11.12
2023-03-13T22:59:10.918Z,11.12
2023-03-13T23:02:18.588Z,11.15
2023-03-13T23:05:21.409Z,11.18
2023-03-13T23:08:24.230Z,11.13
2023-03-13T23:11:31.395Z,11.14
2023-03-13T23:14:34.147Z,11.16
2023-03-13T23:17:37.309Z,11.15
2023-03-13T23:20:40.043Z,11.16
2023-03-13T23:23:43.277Z,11.14
2023-03-13T23:26:47.302Z,11.16
2023-03-13T23:29:51.646Z,11.13
2023-03-13T23:32:54.451Z,11.17
2023-03-13T23:35:57.685Z,11.14
2023-03-13T23:39:04.153Z,11.11
2023-03-13T23:42:08.497Z,11.12
2023-03-13T23:45:11.513Z,11.08
2023-03-13T23:48:17.177Z,11.11
2023-03-13T23:51:19.878Z,11.12
2023-03-13T23:54:25.749Z,11.22
2023-03-13T23:57:29.873Z,11.18
